Overton RPC :: 150-A

liberation: 2021-10-02  07:00     latitude: 34.254868     longitude: -85.871559 70 birds
# LOFT PRING MILES ARRIVAL SPEED ToWin
1 MONTEJANO LOFT IF21-E-1330 133.598 2021-10-02 09:43:27.483 1438.485 00:00:00
2 PHILBETTER LOFT IF21-E-1422 147.897 2021-10-02 10:10:25.001 1366.999 00:09:28
3 VALHALLA LOFTS IF21-VALH-0139 152.211 2021-10-02 10:17:23.469 1357.158 00:11:10
4 VALHALLA LOFTS IF21-VALH-0170 152.211 2021-10-02 10:17:30.293 1356.376 00:11:16
5 VALHALLA LOFTS IF21-E-1443 152.211 2021-10-02 10:17:31.072 1356.287 00:11:17
6 VALHALLA LOFTS AU21-ARPU-8989 152.211 2021-10-02 10:17:32.207 1356.157 00:11:18
7 VALHALLA LOFTS AU21-ARPU-9000 152.211 2021-10-02 10:17:34.284 1355.920 00:11:20
8 VALHALLA LOFTS IF21-VALH-0176 152.211 2021-10-02 10:17:37.588 1355.542 00:11:24
9 VALHALLA LOFTS IF21-VALH-0169 152.211 2021-10-02 10:17:37.960 1355.499 00:11:24
10 VALHALLA LOFTS IF21-E-1414 152.211 2021-10-02 10:17:41.878 1355.051 00:11:28
11 VALHALLA LOFTS IF21-VALH-0188 152.211 2021-10-02 10:17:44.366 1354.767 00:11:30
12 VALHALLA LOFTS IF21-VALH-0148 152.211 2021-10-02 10:17:46.777 1354.492 00:11:33
13 VALHALLA LOFTS IF21-E-1580 152.211 2021-10-02 10:17:53.829 1353.688 00:11:40
14 MONTEJANO LOFT IF21-E-1433 133.598 2021-10-02 09:53:46.849 1353.037 00:10:19
15 VALHALLA LOFTS IF21-E-1598 152.211 2021-10-02 10:18:03.677 1352.566 00:11:50
16 VALHALLA LOFTS AU21-POP-0537 152.211 2021-10-02 10:18:09.226 1351.935 00:11:55
17 PHILBETTER LOFT IF21-E-1552 147.897 2021-10-02 10:13:02.907 1348.363 00:12:06
18 PHILBETTER LOFT IF21-E-1421 147.897 2021-10-02 10:13:46.459 1343.313 00:12:49
19 VALHALLA LOFTS IF21-VALH-0166 152.211 2021-10-02 10:19:27.468 1343.096 00:13:14
20 PHILBETTER LOFT IF21-E-1554 147.897 2021-10-02 10:13:50.786 1342.813 00:12:54
21 VALHALLA LOFTS IF21-VALH-0153 152.211 2021-10-02 10:19:34.190 1342.342 00:13:20
22 VALHALLA LOFTS IF21-VALH-0149 152.211 2021-10-02 10:19:34.579 1342.298 00:13:21
23 VALHALLA LOFTS IF21-E-1411 152.211 2021-10-02 10:19:37.694 1341.949 00:13:24
24 VALHALLA LOFTS IF21-VALH-0135 152.211 2021-10-02 10:19:39.403 1341.758 00:13:26
25 VALHALLA LOFTS IF21-VALH-0182 152.211 2021-10-02 10:19:45.308 1341.097 00:13:31
26 VALHALLA LOFTS IF21-VALH-0175 152.211 2021-10-02 10:19:48.401 1340.751 00:13:35
27 VALHALLA LOFTS IF21-E-1495 152.211 2021-10-02 10:20:33.446 1335.732 00:14:20
28 VALHALLA LOFTS IF21-E-1415 152.211 2021-10-02 10:21:52.293 1327.037 00:15:38
29 VALHALLA LOFTS IF21-E-1498 152.211 2021-10-02 10:24:40.628 1308.846 00:18:27
30 HONEY FARM LOFT IF21-FOYS-5485 136.527 2021-10-02 10:08:23.350 1275.482 00:21:21
31 HONEY FARM LOFT IF21-FOYS-5468 136.527 2021-10-02 10:12:07.699 1250.659 00:25:05
32 MONTEJANO LOFT IF21-E-1432 133.598 2021-10-02 10:08:01.228 1250.565 00:24:34
33 VALHALLA LOFTS IF21-E-1574 152.211 2021-10-02 10:47:47.092 1176.070 00:41:33
34 PHILBETTER LOFT IF21-E-1430 147.897 2021-10-02 10:49:24.772 1134.633 00:48:28
35 PHILBETTER LOFT IF21-E-1558 147.897 2021-10-02 10:51:10.455 1125.988 00:50:13
36 VALHALLA LOFTS AU21-ARPU-8997 152.211 2021-10-02 10:59:06.320 1120.389 00:52:52
37 LET IT GO LOFT IF21-ORP-0462 155.558 2021-10-02 11:06:04.296 1112.615 00:55:45
38 PHILBETTER LOFT IF21-E-1427 147.897 2021-10-02 10:54:25.347 1110.386 00:53:28
39 PHILBETTER LOFT IF21-E-1562 147.897 2021-10-02 11:03:46.653 1067.775 01:02:49
40 PHILBETTER LOFT IF21-VALH-0119 147.897 2021-10-02 11:04:09.512 1066.108 01:03:12
41 VALHALLA LOFTS IF21-VALH-0104 152.211 2021-10-02 11:12:49.742 1059.573 01:06:36
42 PHILBETTER LOFT IF21-E-1425 147.897 2021-10-02 11:20:09.008 1000.574 01:19:12
43 PHILBETTER LOFT IF21-E-1567 147.897 2021-10-02 11:26:52.051 975.388 01:25:55
44 MONTEJANO LOFT IF21-ORP-0404 133.598 2021-10-02 11:17:18.153 913.834 01:33:51
45 VALHALLA LOFTS IF21-VALH-0128 152.211 2021-10-02 12:00:41.362 890.922 01:54:27
46 MONTEJANO LOFT IF21-E-1440 133.598 2021-10-02 11:51:38.000 806.259 02:08:11
47 PHILBETTER LOFT IF21-E-1429 147.897 2021-10-02 12:27:42.279 794.311 02:26:45
48 PHILBETTER LOFT IF21-E-1426 147.897 2021-10-02 12:31:18.435 785.674 02:30:21
49 MONTEJANO LOFT IF21-E-1346 133.598 2021-10-02 12:38:35.637 694.436 02:55:08
50 PHILBETTER LOFT IF21-E-1566 147.897 2021-10-02 13:17:41.611 689.182 03:16:44
51 MONTEJANO LOFT IF21-E-1343 133.598 2021-10-02 12:42:54.333 685.704 02:59:27
52 VALHALLA LOFTS IF21-VALH-0114 152.211 2021-10-02 14:03:34.025 632.464 03:57:20
53 VALHALLA LOFTS IF21-VALH-0158 152.211 2021-10-02 14:08:37.740 624.995 04:02:24
54 PHILBETTER LOFT IF21-E-1559 147.897 2021-10-02 13:56:46.288 624.562 03:55:49
55 MONTEJANO LOFT IF21-E-1437 133.598 2021-10-02 13:53:45.547 568.282 04:10:18
56 HONEY FARM LOFT AU21-NASH-9591 136.527 2021-10-02 14:33:48.655 529.487 04:46:46
57 LET IT GO LOFT IF21-E-1401 155.558 2021-10-02 15:47:00.263 519.508 05:36:41
58 HONEY FARM LOFT IF21-ORP-0436 136.527 2021-10-02 14:59:36.104 501.014 05:12:34
HONEY FARM LOFT IF21-ORP-0526 0 0000-00-00 00:00:00.000 0.000 00:00:00
HONEY FARM LOFT IF21-ORP-0529 0 0000-00-00 00:00:00.000 0.000 00:00:00
LET IT GO LOFT IF21-E-1459 0 0000-00-00 00:00:00.000 0.000 00:00:00
LET IT GO LOFT IF21-ORP-0460 0 0000-00-00 00:00:00.000 0.000 00:00:00
LET IT GO LOFT IF21-ORP-0478 0 0000-00-00 00:00:00.000 0.000 00:00:00
LET IT GO LOFT IF21-ORP-0487 0 0000-00-00 00:00:00.000 0.000 00:00:00
MONTEJANO LOFT IF21-E-1327 0 0000-00-00 00:00:00.000 0.000 00:00:00
MONTEJANO LOFT IF21-E-1382 0 0000-00-00 00:00:00.000 0.000 00:00:00
VALHALLA LOFTS IF21-E-1496 0 0000-00-00 00:00:00.000 0.000 00:00:00
VALHALLA LOFTS IF21-VALH-0103 0 0000-00-00 00:00:00.000 0.000 00:00:00
VALHALLA LOFTS IF21-VALH-0172 0 0000-00-00 00:00:00.000 0.000 00:00:00
VALHALLA LOFTS IF21-VALH-0184 0 0000-00-00 00:00:00.000 0.000 00:00:00